createdAt,value
2022-11-13T00:00:16.314Z,21.45
2022-11-13T00:02:43.128Z,19.15
2022-11-13T00:05:13.946Z,18.60
2022-11-13T00:07:43.448Z,19.85
2022-11-13T00:10:11.115Z,20.90
2022-11-13T00:12:38.487Z,20.05
2022-11-13T00:15:05.860Z,21.20
2022-11-13T00:17:34.869Z,24.58
2022-11-13T00:20:04.057Z,22.48
2022-11-13T00:22:31.619Z,20.45
2022-11-13T00:24:59.254Z,24.48
2022-11-13T00:27:26.073Z,23.38
2022-11-13T00:29:55.427Z,22.25
2022-11-13T00:32:22.527Z,22.10
2022-11-13T00:34:49.476Z,21.73
2022-11-13T00:37:16.757Z,22.35
2022-11-13T00:39:44.235Z,21.13
2022-11-13T00:42:11.637Z,20.58
2022-11-13T00:44:39.104Z,20.52
2022-11-13T00:47:07.284Z,19.80
2022-11-13T00:49:36.871Z,19.23
2022-11-13T00:52:04.106Z,21.27
2022-11-13T00:54:31.609Z,22.58
2022-11-13T00:56:58.341Z,22.48
2022-11-13T00:59:25.479Z,19.33
2022-11-13T01:01:54.191Z,20.60
2022-11-13T01:04:23.578Z,19.50
2022-11-13T01:06:50.422Z,20.05
2022-11-13T01:09:17.688Z,21.67
2022-11-13T01:11:44.436Z,19.90
2022-11-13T01:14:13.435Z,21.40
2022-11-13T01:16:40.236Z,19.98
2022-11-13T01:19:09.497Z,21.50
2022-11-13T01:21:38.167Z,22.90
2022-11-13T01:24:05.750Z,19.65
2022-11-13T01:26:34.582Z,19.63
2022-11-13T01:29:01.440Z,18.48
2022-11-13T01:31:30.588Z,20.60
2022-11-13T01:34:00.280Z,21.65
2022-11-13T01:36:28.943Z,18.10
2022-11-13T01:38:56.851Z,18.50
2022-11-13T01:41:25.697Z,17.88
2022-11-13T01:43:55.249Z,20.02
2022-11-13T01:46:33.921Z,19.45
2022-11-13T01:49:24.149Z,21.17
2022-11-13T01:52:17.739Z,22.85
2022-11-13T01:54:50.838Z,23.13
2022-11-13T01:57:20.791Z,21.25
2022-11-13T01:59:55.336Z,22.42
2022-11-13T02:02:24.605Z,25.48
2022-11-13T02:04:54.027Z,23.50
2022-11-13T02:07:25.705Z,23.30
2022-11-13T02:09:57.407Z,21.90
2022-11-13T02:12:37.431Z,21.92
2022-11-13T02:15:07.701Z,23.42
2022-11-13T02:17:49.684Z,23.42
2022-11-13T02:20:22.536Z,23.63
2022-11-13T02:23:01.899Z,22.45
2022-11-13T02:25:32.214Z,23.08
2022-11-13T02:27:59.393Z,21.52
2022-11-13T02:30:33.172Z,18.88
2022-11-13T02:33:00.483Z,19.50
2022-11-13T02:35:29.291Z,20.15
2022-11-13T02:37:58.358Z,17.58
2022-11-13T02:40:26.836Z,18.60
2022-11-13T02:42:54.199Z,16.58
2022-11-13T02:45:21.607Z,17.92
2022-11-13T02:47:48.942Z,16.27
2022-11-13T02:50:16.684Z,16.58
2022-11-13T02:52:44.679Z,15.93
2022-11-13T02:55:11.920Z,17.45
2022-11-13T02:57:40.744Z,14.57
2022-11-13T03:00:14.141Z,17.92
2022-11-13T03:02:41.396Z,16.98
2022-11-13T03:05:13.660Z,16.23
2022-11-13T03:07:41.832Z,17.85
2022-11-13T03:10:11.784Z,16.33
2022-11-13T03:12:41.183Z,18.23
2022-11-13T03:15:09.458Z,17.58
2022-11-13T03:17:37.292Z,16.23
2022-11-13T03:20:06.125Z,17.48
2022-11-13T03:22:35.680Z,18.60
2022-11-13T03:25:07.403Z,16.67
2022-11-13T03:27:37.794Z,16.23
2022-11-13T03:30:07.637Z,17.25
2022-11-13T03:32:34.403Z,18.80
2022-11-13T03:35:02.068Z,17.13
2022-11-13T03:37:28.888Z,17.80
2022-11-13T03:39:56.692Z,17.48
2022-11-13T03:42:26.058Z,16.75
2022-11-13T03:44:52.823Z,15.85
2022-11-13T03:47:19.823Z,16.45
2022-11-13T03:49:49.345Z,18.10
2022-11-13T03:52:16.705Z,15.85
2022-11-13T03:54:46.325Z,17.20
2022-11-13T03:57:13.725Z,16.67
2022-11-13T03:59:41.269Z,16.13
2022-11-13T04:02:09.666Z,16.55
2022-11-13T04:04:37.589Z,16.63
2022-11-13T04:07:04.715Z,16.77
2022-11-13T04:09:32.830Z,16.15
2022-11-13T04:12:02.198Z,16.88
2022-11-13T04:14:30.623Z,15.90
2022-11-13T04:16:57.356Z,18.48
2022-11-13T04:19:24.203Z,18.35
2022-11-13T04:21:50.942Z,15.50
2022-11-13T04:24:17.922Z,17.42
2022-11-13T04:26:45.226Z,17.23
2022-11-13T04:29:12.245Z,16.67
2022-11-13T04:31:38.995Z,16.35
2022-11-13T04:34:05.750Z,18.33
2022-11-13T04:36:35.214Z,20.75
2022-11-13T04:39:07.077Z,18.05
2022-11-13T04:41:55.478Z,17.60
2022-11-13T04:44:22.678Z,18.27
2022-11-13T04:46:50.039Z,17.90
2022-11-13T04:49:17.611Z,17.88
2022-11-13T04:51:45.454Z,19.45
2022-11-13T04:54:12.766Z,17.75
2022-11-13T04:56:40.924Z,17.05
2022-11-13T04:59:11.183Z,16.80
2022-11-13T05:01:38.245Z,15.88
2022-11-13T05:04:08.018Z,20.20
2022-11-13T05:06:34.765Z,18.95
2022-11-13T05:09:03.259Z,18.63
2022-11-13T05:11:31.891Z,19.77
2022-11-13T05:14:03.189Z,18.48
2022-11-13T05:16:32.266Z,19.35
2022-11-13T05:18:59.483Z,21.75
2022-11-13T05:21:26.734Z,18.67
2022-11-13T05:23:53.982Z,18.33
2022-11-13T05:26:21.226Z,19.30
2022-11-13T05:28:48.454Z,18.75
2022-11-13T05:31:17.659Z,20.45
2022-11-13T05:33:44.834Z,19.83
2022-11-13T05:36:14.160Z,20.65
2022-11-13T05:38:42.665Z,19.30
2022-11-13T05:41:13.064Z,21.20
2022-11-13T05:43:42.568Z,21.20
2022-11-13T05:46:15.284Z,21.20
2022-11-13T05:48:45.271Z,20.52
2022-11-13T05:51:25.202Z,20.13
2022-11-13T05:53:53.603Z,22.83
2022-11-13T05:56:25.309Z,19.67
2022-11-13T05:58:54.762Z,19.95
2022-11-13T06:01:37.039Z,20.58
2022-11-13T06:04:05.392Z,22.90
2022-11-13T06:06:36.973Z,22.92
2022-11-13T06:09:06.874Z,22.08
2022-11-13T06:11:35.151Z,22.65
2022-11-13T06:14:04.025Z,22.48
2022-11-13T06:16:37.040Z,21.90
2022-11-13T06:19:07.327Z,25.90
2022-11-13T06:21:36.997Z,21.83
2022-11-13T06:24:05.035Z,22.73
2022-11-13T06:26:35.135Z,24.75
2022-11-13T06:29:03.835Z,26.23
2022-11-13T06:31:33.791Z,25.67
2022-11-13T06:34:01.208Z,28.33
2022-11-13T06:36:31.836Z,24.98
2022-11-13T06:38:59.198Z,29.25
2022-11-13T06:41:30.096Z,27.05
2022-11-13T06:44:02.602Z,29.30
2022-11-13T06:46:31.056Z,29.58
2022-11-13T06:48:58.613Z,26.85
2022-11-13T06:51:28.578Z,29.65
2022-11-13T06:53:57.486Z,29.27
2022-11-13T06:56:25.202Z,33.88
2022-11-13T06:58:56.427Z,30.90
2022-11-13T07:01:27.832Z,31.60
2022-11-13T07:03:55.298Z,31.45
2022-11-13T07:06:23.985Z,32.25
2022-11-13T07:08:51.881Z,31.30
2022-11-13T07:11:24.461Z,32.60
2022-11-13T07:13:51.398Z,31.35
2022-11-13T07:16:19.103Z,29.83
2022-11-13T07:18:54.816Z,29.90
2022-11-13T07:21:22.989Z,29.95
2022-11-13T07:23:51.122Z,31.90
2022-11-13T07:26:18.633Z,27.55
2022-11-13T07:28:47.206Z,28.77
2022-11-13T07:31:16.442Z,30.92
2022-11-13T07:33:44.769Z,27.55
2022-11-13T07:36:14.872Z,30.05
2022-11-13T07:38:44.166Z,29.17
2022-11-13T07:41:13.521Z,28.45
2022-11-13T07:43:40.746Z,28.15
2022-11-13T07:46:07.502Z,28.95
2022-11-13T07:48:34.739Z,27.60
2022-11-13T07:51:03.146Z,27.65
2022-11-13T07:53:30.566Z,26.75
2022-11-13T07:56:02.408Z,24.58
2022-11-13T07:58:31.125Z,25.70
2022-11-13T08:01:06.390Z,23.98
2022-11-13T08:03:33.752Z,26.30
2022-11-13T08:06:06.593Z,26.40
2022-11-13T08:08:34.315Z,26.67
2022-11-13T08:11:10.369Z,26.95
2022-11-13T08:13:38.917Z,23.25
2022-11-13T08:16:06.193Z,23.80
2022-11-13T08:18:52.739Z,23.02
2022-11-13T08:21:22.229Z,26.02
2022-11-13T08:24:12.647Z,26.42
2022-11-13T08:26:41.854Z,26.70
2022-11-13T08:29:09.110Z,25.75
2022-11-13T08:31:37.048Z,26.67
2022-11-13T08:34:05.370Z,23.75
2022-11-13T08:36:36.326Z,24.23
2022-11-13T08:39:03.090Z,23.35
2022-11-13T08:41:32.227Z,26.45
2022-11-13T08:44:01.543Z,25.85
2022-11-13T08:46:30.208Z,25.50
2022-11-13T08:48:57.226Z,22.83
2022-11-13T08:51:24.167Z,25.42
2022-11-13T08:53:52.443Z,24.20
2022-11-13T08:56:20.055Z,26.85
2022-11-13T08:58:47.480Z,24.23
2022-11-13T09:01:17.002Z,25.73
2022-11-13T09:03:44.277Z,23.30
2022-11-13T09:06:13.683Z,25.98
2022-11-13T09:08:41.703Z,26.85
2022-11-13T09:11:31.636Z,24.23
2022-11-13T09:13:58.424Z,26.40
2022-11-13T09:16:26.749Z,27.60
2022-11-13T09:18:55.094Z,28.98
2022-11-13T09:21:21.917Z,27.30
2022-11-13T09:23:50.687Z,30.63
2022-11-13T09:26:18.670Z,30.15
2022-11-13T09:28:48.687Z,26.90
2022-11-13T09:31:22.370Z,30.95
2022-11-13T09:33:49.871Z,28.70
2022-11-13T09:36:17.398Z,26.50
2022-11-13T09:38:46.008Z,31.02
2022-11-13T09:41:23.707Z,30.98
2022-11-13T09:44:00.004Z,32.05
2022-11-13T09:46:50.234Z,31.75
2022-11-13T09:49:21.261Z,31.45
2022-11-13T09:51:54.926Z,32.63
2022-11-13T09:54:24.358Z,31.60
2022-11-13T09:57:01.936Z,31.35
2022-11-13T09:59:40.744Z,32.40
2022-11-13T10:02:40.148Z,29.75
2022-11-13T10:05:18.620Z,35.70
2022-11-13T10:08:06.307Z,37.00
2022-11-13T10:10:55.134Z,33.50
2022-11-13T10:16:37.894Z,31.63
2022-11-13T10:19:17.994Z,31.63
2022-11-13T10:22:26.047Z,30.23
2022-11-13T10:24:49.775Z,30.48
2022-11-13T10:27:16.688Z,28.45
2022-11-13T10:29:48.982Z,30.10
2022-11-13T10:32:53.445Z,30.75
2022-11-13T10:35:32.806Z,31.05
2022-11-13T10:38:25.322Z,34.35
2022-11-13T10:40:53.532Z,32.45
2022-11-13T10:43:25.042Z,33.00
2022-11-13T10:45:58.892Z,32.65
2022-11-13T10:48:32.339Z,32.17
2022-11-13T10:51:29.773Z,34.35
2022-11-13T10:53:59.188Z,31.85
2022-11-13T10:56:35.190Z,33.03
2022-11-13T10:59:14.874Z,30.85
2022-11-13T11:01:46.700Z,32.95
2022-11-13T11:04:20.717Z,33.20
2022-11-13T11:07:18.269Z,32.47
2022-11-13T11:09:38.493Z,33.65
2022-11-13T11:12:17.758Z,33.50
2022-11-13T11:14:56.532Z,31.38
2022-11-13T11:17:43.956Z,34.35
2022-11-13T11:20:40.512Z,35.50
2022-11-13T11:23:18.401Z,34.00
2022-11-13T11:26:12.435Z,34.97
2022-11-13T11:28:51.314Z,32.22
2022-11-13T11:31:33.504Z,31.90
2022-11-13T11:34:24.085Z,34.47
2022-11-13T11:37:14.439Z,33.60
2022-11-13T11:40:04.744Z,35.53
2022-11-13T11:42:50.238Z,38.42
2022-11-13T11:45:30.586Z,39.97
2022-11-13T11:47:59.605Z,33.88
2022-11-13T11:50:46.488Z,37.50
2022-11-13T11:53:29.116Z,36.35
2022-11-13T11:56:17.948Z,34.45
2022-11-13T11:59:02.737Z,33.70
2022-11-13T12:01:56.257Z,34.45
2022-11-13T12:04:32.750Z,33.00
2022-11-13T12:07:18.342Z,35.60
2022-11-13T12:10:24.514Z,32.50
2022-11-13T12:12:58.427Z,34.35
2022-11-13T12:15:37.253Z,34.85
2022-11-13T12:18:23.486Z,31.73
2022-11-13T12:21:09.274Z,36.42
2022-11-13T12:24:03.648Z,40.53
2022-11-13T12:26:40.000Z,37.88
2022-11-13T12:29:22.243Z,39.45
2022-11-13T12:32:29.218Z,38.40
2022-11-13T12:35:03.126Z,39.40
2022-11-13T12:37:58.053Z,42.08
2022-11-13T12:40:30.822Z,38.22
2022-11-13T12:43:35.839Z,38.72
2022-11-13T12:46:20.265Z,40.03
2022-11-13T12:48:48.648Z,40.22
2022-11-13T12:51:17.625Z,39.88
2022-11-13T12:53:57.602Z,45.70
2022-11-13T12:56:24.366Z,42.35
2022-11-13T12:59:30.276Z,42.92
2022-11-13T13:02:07.727Z,37.95
2022-11-13T13:04:40.769Z,43.90
2022-11-13T13:07:11.071Z,41.10
2022-11-13T13:10:15.447Z,41.33
2022-11-13T13:13:19.519Z,39.55
2022-11-13T13:16:02.825Z,41.03
2022-11-13T13:18:35.440Z,42.20
2022-11-13T13:21:07.257Z,43.50
2022-11-13T13:23:37.068Z,44.08
2022-11-13T13:26:05.580Z,37.40
2022-11-13T13:28:35.179Z,42.20
2022-11-13T13:31:16.777Z,38.95
2022-11-13T13:33:55.619Z,37.75
2022-11-13T13:36:56.111Z,44.85
2022-11-13T13:39:34.497Z,43.50
2022-11-13T13:42:17.271Z,43.65
2022-11-13T13:45:23.745Z,48.47
2022-11-13T13:47:55.243Z,44.30
2022-11-13T13:50:27.703Z,46.47
2022-11-13T13:52:56.998Z,43.25
2022-11-13T13:55:39.166Z,45.70
2022-11-13T13:58:14.486Z,42.58
2022-11-13T14:01:05.222Z,44.03
2022-11-13T14:03:29.738Z,38.55
2022-11-13T14:06:10.632Z,39.50
2022-11-13T14:08:37.448Z,42.17
2022-11-13T14:11:21.016Z,38.10
2022-11-13T14:13:48.405Z,37.90
2022-11-13T14:16:15.471Z,40.15
2022-11-13T14:18:42.778Z,40.85
2022-11-13T14:21:23.733Z,40.63
2022-11-13T14:23:52.843Z,41.05
2022-11-13T14:26:20.690Z,41.55
2022-11-13T14:28:55.155Z,40.30
2022-11-13T14:31:32.433Z,40.70
2022-11-13T14:34:10.339Z,42.95
2022-11-13T14:36:38.678Z,44.15
2022-11-13T14:39:05.540Z,38.65
2022-11-13T14:41:39.018Z,38.78
2022-11-13T14:44:06.258Z,38.70
2022-11-13T14:46:46.050Z,36.33
2022-11-13T14:49:31.075Z,40.92
2022-11-13T14:51:59.424Z,38.08
2022-11-13T14:55:07.940Z,42.40
2022-11-13T14:57:24.407Z,37.45
2022-11-13T14:59:51.733Z,39.60
2022-11-13T15:02:20.324Z,41.33
2022-11-13T15:04:48.704Z,40.97
2022-11-13T15:07:24.133Z,43.53
2022-11-13T15:09:51.818Z,40.90
2022-11-13T15:12:18.733Z,44.35
2022-11-13T15:14:45.571Z,45.25
2022-11-13T15:17:18.662Z,42.75
2022-11-13T15:19:48.801Z,41.47
2022-11-13T15:22:32.579Z,46.20
2022-11-13T15:24:59.437Z,44.17
2022-11-13T15:27:26.667Z,45.85
2022-11-13T15:29:54.603Z,43.20
2022-11-13T15:32:22.109Z,45.72
2022-11-13T15:34:48.905Z,46.78
2022-11-13T15:37:17.652Z,46.90
2022-11-13T15:39:44.496Z,47.40
2022-11-13T15:42:15.098Z,44.95
2022-11-13T15:44:42.046Z,48.75
2022-11-13T15:47:38.306Z,50.50
2022-11-13T15:50:16.361Z,52.10
2022-11-13T15:52:48.970Z,49.88
2022-11-13T15:55:34.610Z,50.38
2022-11-13T15:58:03.757Z,53.78
2022-11-13T16:00:36.422Z,51.75
2022-11-13T16:03:11.884Z,54.60
2022-11-13T16:05:48.423Z,52.75
2022-11-13T16:08:27.514Z,50.75
2022-11-13T16:10:57.908Z,52.83
2022-11-13T16:13:31.891Z,52.20
2022-11-13T16:16:05.932Z,51.08
2022-11-13T16:24:13.789Z,56.38
2022-11-13T16:26:57.631Z,55.58
2022-11-13T16:37:12.557Z,53.78
2022-11-13T16:39:42.092Z,54.10
2022-11-13T16:42:10.951Z,55.83
2022-11-13T16:44:46.674Z,53.78
2022-11-13T16:47:28.330Z,55.40
2022-11-13T16:49:56.485Z,53.50
2022-11-13T16:52:25.597Z,62.50
2022-11-13T16:55:08.122Z,58.33
2022-11-13T16:57:45.111Z,57.70
2022-11-13T17:00:16.609Z,57.22
2022-11-13T17:02:45.397Z,59.13
2022-11-13T17:11:26.319Z,54.80
2022-11-13T17:19:57.199Z,54.60
2022-11-13T17:26:12.461Z,60.97
2022-11-13T17:31:25.970Z,61.15
2022-11-13T17:33:59.674Z,60.95
2022-11-13T17:36:50.760Z,62.78
2022-11-13T17:39:27.197Z,63.78
2022-11-13T17:41:55.066Z,64.93
2022-11-13T17:44:28.279Z,61.17
2022-11-13T17:49:39.769Z,62.45
2022-11-13T17:54:51.895Z,68.43
2022-11-13T17:57:26.692Z,97.05
2022-11-13T17:59:58.097Z,88.18
2022-11-13T18:02:26.430Z,88.95
2022-11-13T18:04:56.145Z,90.75
2022-11-13T18:07:23.673Z,91.40
2022-11-13T18:09:54.641Z,93.57
2022-11-13T18:15:15.890Z,98.07
2022-11-13T18:20:53.228Z,103.03
2022-11-13T18:23:45.413Z,93.07
2022-11-13T18:26:23.038Z,89.35
2022-11-13T18:28:50.559Z,90.13
2022-11-13T18:34:39.598Z,89.75
2022-11-13T18:37:12.141Z,89.00
2022-11-13T18:39:44.409Z,83.60
2022-11-13T19:00:50.096Z,82.70
2022-11-13T19:21:29.350Z,81.82
2022-11-13T19:24:01.916Z,78.82
2022-11-13T19:26:29.857Z,81.88
2022-11-13T19:29:07.242Z,77.72
2022-11-13T19:31:46.164Z,73.00
2022-11-13T19:34:17.748Z,69.70
2022-11-13T19:36:49.362Z,65.10
2022-11-13T19:39:20.668Z,67.03
2022-11-13T19:41:50.530Z,71.70
2022-11-13T19:44:18.654Z,70.60
2022-11-13T19:49:38.839Z,74.65
2022-11-13T19:52:12.217Z,74.25
2022-11-13T19:57:30.403Z,71.47
2022-11-13T20:03:11.467Z,76.13
2022-11-13T20:05:45.579Z,69.40
2022-11-13T20:08:14.765Z,70.22
2022-11-13T20:19:30.803Z,72.70
2022-11-13T20:24:48.551Z,68.45
2022-11-13T20:30:00.218Z,63.45
2022-11-13T20:32:32.098Z,66.45
2022-11-13T20:35:04.478Z,67.07
2022-11-13T20:37:36.100Z,66.22
2022-11-13T20:40:04.449Z,77.18
2022-11-13T20:42:38.822Z,59.85
2022-11-13T20:45:07.415Z,64.90
2022-11-13T20:47:37.610Z,70.10
2022-11-13T20:50:06.920Z,59.15
2022-11-13T20:52:34.463Z,58.47
2022-11-13T20:55:01.312Z,59.70
2022-11-13T20:57:28.271Z,61.05
2022-11-13T20:59:55.758Z,60.63
2022-11-13T21:02:24.904Z,62.15
2022-11-13T21:04:55.182Z,66.05
2022-11-13T21:07:23.201Z,61.85
2022-11-13T21:09:52.119Z,55.47
2022-11-13T21:12:21.775Z,66.75
2022-11-13T21:14:48.529Z,69.40
2022-11-13T21:17:15.804Z,65.75
2022-11-13T21:19:42.750Z,64.13
2022-11-13T21:22:11.427Z,61.33
2022-11-13T21:24:38.956Z,61.75
2022-11-13T21:27:11.579Z,62.05
2022-11-13T21:29:39.196Z,70.10
2022-11-13T21:32:06.510Z,65.40
2022-11-13T21:34:35.040Z,61.70
2022-11-13T21:37:11.163Z,59.20
2022-11-13T21:39:40.908Z,69.18
2022-11-13T21:42:08.226Z,63.65
2022-11-13T21:44:36.953Z,62.78
2022-11-13T21:47:04.757Z,65.55
2022-11-13T21:49:34.811Z,63.53
2022-11-13T21:54:47.603Z,62.53
2022-11-13T21:57:18.304Z,61.47
2022-11-13T21:59:49.096Z,53.42
2022-11-13T22:02:19.101Z,47.05
2022-11-13T22:04:47.178Z,63.95
2022-11-13T22:07:14.557Z,62.50
2022-11-13T22:09:44.523Z,51.70
2022-11-13T22:12:14.579Z,62.38
2022-11-13T22:14:41.891Z,56.15
2022-11-13T22:17:10.914Z,52.72
2022-11-13T22:19:38.797Z,63.85
2022-11-13T22:22:05.955Z,57.92
2022-11-13T22:24:43.489Z,65.10
2022-11-13T22:27:12.115Z,67.22
2022-11-13T22:29:42.737Z,58.85
2022-11-13T22:32:10.586Z,66.82
2022-11-13T22:34:37.978Z,66.45
2022-11-13T22:37:05.770Z,64.00
2022-11-13T22:39:35.817Z,58.08
2022-11-13T22:42:07.827Z,47.58
2022-11-13T22:44:54.827Z,65.68
2022-11-13T22:47:28.585Z,65.18
2022-11-13T22:49:55.344Z,55.30
2022-11-13T22:52:26.265Z,57.00
2022-11-13T22:55:52.541Z,60.78
2022-11-13T22:58:19.378Z,68.00
2022-11-13T23:00:46.893Z,71.20
2022-11-13T23:03:17.871Z,65.25
2022-11-13T23:05:44.681Z,59.80
2022-11-13T23:08:15.039Z,57.28
2022-11-13T23:10:41.842Z,75.45
2022-11-13T23:13:10.149Z,62.83
2022-11-13T23:15:39.511Z,83.10
2022-11-13T23:18:09.835Z,64.10
2022-11-13T23:20:43.937Z,72.53
2022-11-13T23:23:11.922Z,68.68
2022-11-13T23:25:40.504Z,67.32
2022-11-13T23:28:07.403Z,61.67
2022-11-13T23:30:36.180Z,69.43
2022-11-13T23:33:03.410Z,68.13
2022-11-13T23:35:31.129Z,66.53
2022-11-13T23:37:58.030Z,67.10
2022-11-13T23:40:25.427Z,68.40
2022-11-13T23:42:55.701Z,70.95
2022-11-13T23:45:23.129Z,68.32
2022-11-13T23:47:51.419Z,61.25
2022-11-13T23:50:18.464Z,62.25
2022-11-13T23:52:48.563Z,57.40
2022-11-13T23:55:16.722Z,57.75
2022-11-13T23:57:44.110Z,63.92
